createdAt,value
2024-04-11T00:01:25.941Z,7.10
2024-04-11T00:05:24.642Z,6.30
2024-04-11T00:09:23.613Z,12.70
2024-04-11T00:13:21.618Z,11.10
2024-04-11T00:17:19.629Z,8.70
2024-04-11T00:21:16.577Z,11.40
2024-04-11T00:25:13.580Z,5.80
2024-04-11T00:29:11.589Z,10.70
2024-04-11T00:33:08.693Z,8.40
2024-04-11T00:37:06.625Z,9.00
2024-04-11T00:41:10.571Z,9.90
2024-04-11T00:45:08.592Z,7.20
2024-04-11T00:49:06.651Z,8.90
2024-04-11T00:53:04.567Z,12.70
2024-04-11T00:57:05.591Z,9.30
2024-04-11T01:01:03.588Z,7.50
2024-04-11T01:05:01.651Z,8.40
2024-04-11T01:08:59.647Z,9.70
2024-04-11T01:12:56.555Z,10.00
2024-04-11T01:16:53.630Z,13.20
2024-04-11T01:20:51.540Z,9.60
2024-04-11T01:24:48.576Z,9.60
2024-04-11T01:28:45.594Z,7.70
2024-04-11T01:32:43.614Z,11.70
2024-04-11T01:36:40.539Z,13.30
2024-04-11T01:40:38.568Z,7.80
2024-04-11T01:44:36.618Z,13.30
2024-04-11T01:48:33.674Z,9.40
2024-04-11T01:52:30.466Z,10.50
2024-04-11T01:56:27.529Z,8.30
2024-04-11T02:00:25.495Z,13.20
2024-04-11T02:04:22.527Z,9.50
2024-04-11T02:08:20.546Z,8.70
2024-04-11T02:12:19.569Z,16.40
2024-04-11T02:16:17.517Z,9.40
2024-04-11T02:20:17.549Z,10.40
2024-04-11T02:24:15.463Z,10.40
2024-04-11T02:28:13.436Z,8.20
2024-04-11T02:32:10.453Z,11.30
2024-04-11T02:36:08.485Z,10.30
2024-04-11T02:40:06.576Z,9.70
2024-04-11T02:44:04.515Z,13.90
2024-04-11T02:48:02.671Z,11.20
2024-04-11T02:52:01.469Z,11.00
2024-04-11T02:56:02.458Z,11.30
2024-04-11T03:00:00.609Z,11.60
2024-04-11T03:03:58.625Z,12.90
2024-04-11T03:07:57.392Z,13.10
2024-04-11T03:11:55.576Z,11.90
2024-04-11T03:15:53.400Z,15.40
2024-04-11T03:19:50.501Z,12.30
2024-04-11T03:23:48.424Z,10.40
2024-04-11T03:27:46.464Z,14.30
2024-04-11T03:31:44.389Z,16.80
2024-04-11T03:35:42.423Z,15.30
2024-04-11T03:39:40.385Z,14.80
2024-04-11T03:43:39.378Z,13.80
2024-04-11T03:47:37.527Z,12.00
2024-04-11T03:51:37.368Z,18.30
2024-04-11T03:55:35.376Z,14.30
2024-04-11T03:59:33.513Z,17.40
2024-04-11T04:03:31.529Z,11.70
2024-04-11T04:07:29.338Z,17.00
2024-04-11T04:11:33.415Z,17.90
2024-04-11T04:15:31.440Z,11.80
2024-04-11T04:19:30.319Z,14.70
2024-04-11T04:23:28.761Z,12.30
2024-04-11T04:27:26.306Z,13.90
2024-04-11T04:31:28.341Z,14.30
2024-04-11T04:35:27.370Z,11.00
2024-04-11T04:39:25.336Z,11.40
2024-04-11T04:43:22.290Z,11.00
2024-04-11T04:47:24.394Z,11.80
2024-04-11T04:51:23.322Z,10.90
2024-04-11T04:55:25.327Z,10.50
2024-04-11T04:59:22.298Z,9.30
2024-04-11T05:03:20.501Z,10.50
2024-04-11T05:07:19.252Z,9.90
2024-04-11T05:11:19.366Z,11.80
2024-04-11T05:15:20.280Z,11.90
2024-04-11T05:19:23.330Z,12.20
2024-04-11T05:23:22.337Z,8.60
2024-04-11T05:27:20.297Z,9.70
2024-04-11T05:31:24.283Z,8.80
2024-04-11T05:35:01.526Z,12.60
2024-04-11T05:38:25.430Z,8.50
2024-04-11T05:41:50.014Z,8.40
2024-04-11T05:45:17.954Z,8.30
2024-04-11T05:48:44.612Z,7.10
2024-04-11T05:52:09.454Z,7.40
2024-04-11T05:55:33.118Z,11.60
2024-04-11T05:58:56.572Z,9.90
2024-04-11T06:02:21.575Z,9.60
2024-04-11T06:05:45.202Z,8.20
2024-04-11T06:09:09.667Z,11.30
2024-04-11T06:12:38.714Z,6.70
2024-04-11T06:16:03.483Z,9.60
2024-04-11T06:19:27.196Z,9.40
2024-04-11T06:22:53.557Z,13.00
2024-04-11T06:26:17.947Z,7.60
2024-04-11T06:29:43.898Z,7.40
2024-04-11T06:33:09.609Z,6.90
2024-04-11T06:36:34.318Z,5.90
2024-04-11T06:39:57.980Z,10.30
2024-04-11T06:43:22.603Z,6.20
2024-04-11T06:46:46.829Z,6.90
2024-04-11T06:50:14.449Z,5.10
2024-04-11T06:53:40.300Z,7.00
2024-04-11T06:57:04.636Z,4.40
2024-04-11T07:00:36.471Z,5.00
2024-04-11T07:04:05.172Z,9.90
2024-04-11T07:07:29.266Z,7.90
2024-04-11T07:10:54.311Z,8.40
2024-04-11T07:14:24.547Z,5.50
2024-04-11T07:17:58.096Z,8.50
2024-04-11T07:21:22.153Z,6.50
2024-04-11T07:24:45.667Z,9.50
2024-04-11T07:28:09.260Z,5.80
2024-04-11T07:31:36.475Z,6.10
2024-04-11T07:35:01.050Z,5.00
2024-04-11T07:38:27.467Z,3.70
2024-04-11T07:42:01.467Z,4.60
2024-04-11T07:45:31.865Z,5.40
2024-04-11T07:48:55.391Z,5.50
2024-04-11T07:52:19.065Z,5.20
2024-04-11T07:55:47.370Z,5.40
2024-04-11T07:59:12.793Z,3.90
2024-04-11T08:02:36.359Z,4.50
2024-04-11T08:06:00.201Z,4.70
2024-04-11T08:09:25.061Z,3.10
2024-04-11T08:12:49.542Z,5.40
2024-04-11T08:16:13.103Z,3.60
2024-04-11T08:19:41.502Z,7.40
2024-04-11T08:23:17.079Z,5.50
2024-04-11T08:26:44.080Z,2.20
2024-04-11T08:30:08.109Z,1.70
2024-04-11T08:33:31.873Z,3.40
2024-04-11T08:36:55.571Z,3.80
2024-04-11T08:40:22.545Z,3.50
2024-04-11T08:43:46.903Z,4.50
2024-04-11T08:47:11.558Z,4.00
2024-04-11T08:50:36.168Z,5.60
2024-04-11T08:54:05.209Z,3.30
2024-04-11T08:57:29.429Z,3.80
2024-04-11T09:00:54.713Z,3.30
2024-04-11T09:04:19.640Z,7.10
2024-04-11T09:07:46.203Z,5.30
2024-04-11T09:11:11.376Z,3.00
2024-04-11T09:14:35.905Z,4.30
2024-04-11T09:18:00.726Z,3.10
2024-04-11T09:21:24.500Z,3.00
2024-04-11T09:24:48.642Z,5.70
2024-04-11T09:28:12.250Z,4.30
2024-04-11T09:31:35.885Z,2.90
2024-04-11T09:35:06.744Z,3.00
2024-04-11T09:38:31.894Z,3.70
2024-04-11T09:41:57.945Z,5.30
2024-04-11T09:45:23.508Z,4.00
2024-04-11T09:52:14.290Z,3.60
2024-04-11T09:55:38.276Z,2.30
2024-04-11T09:59:04.136Z,3.00
2024-04-11T10:02:29.819Z,5.30
2024-04-11T10:05:53.532Z,2.70
2024-04-11T10:09:19.817Z,3.30
2024-04-11T10:12:44.509Z,4.70
2024-04-11T10:16:22.913Z,3.20
2024-04-11T10:19:49.078Z,4.40
2024-04-11T10:23:16.944Z,4.10
2024-04-11T10:26:41.743Z,2.20
2024-04-11T10:30:07.740Z,2.60
2024-04-11T10:33:36.634Z,1.50
2024-04-11T10:37:08.724Z,2.50
2024-04-11T10:40:33.727Z,5.90
2024-04-11T10:43:57.488Z,3.70
2024-04-11T10:47:22.770Z,2.30
2024-04-11T10:50:48.671Z,5.60
2024-04-11T10:54:12.233Z,3.40
2024-04-11T10:57:39.262Z,5.50
2024-04-11T11:01:11.863Z,4.50
2024-04-11T11:04:38.610Z,3.90
2024-04-11T11:08:02.183Z,3.00
2024-04-11T11:11:26.679Z,5.40
2024-04-11T11:14:54.332Z,5.70
2024-04-11T11:18:17.970Z,3.70
2024-04-11T11:21:43.839Z,4.30
2024-04-11T11:25:09.908Z,7.40
2024-04-11T11:28:35.014Z,3.20
2024-04-11T11:32:03.807Z,4.20
2024-04-11T11:35:27.552Z,3.30
2024-04-11T11:38:51.117Z,4.80
2024-04-11T11:42:24.350Z,3.40
2024-04-11T11:46:02.379Z,5.50
2024-04-11T11:49:25.801Z,2.80
2024-04-11T11:52:54.989Z,4.70
2024-04-11T11:56:23.421Z,4.90
2024-04-11T11:59:47.255Z,5.30
2024-04-11T12:03:21.654Z,5.60
2024-04-11T12:06:51.835Z,5.30
2024-04-11T12:10:15.316Z,5.20
2024-04-11T12:13:46.005Z,6.10
2024-04-11T12:17:12.024Z,4.30
2024-04-11T12:20:35.635Z,4.00
2024-04-11T12:24:00.017Z,4.10
2024-04-11T12:27:24.992Z,5.10
2024-04-11T12:30:56.734Z,4.20
2024-04-11T12:34:30.125Z,6.60
2024-04-11T12:37:55.183Z,6.20
2024-04-11T12:41:18.670Z,6.00
2024-04-11T12:44:46.298Z,5.50
2024-04-11T12:48:11.174Z,6.00
2024-04-11T12:51:37.575Z,2.90
2024-04-11T12:55:02.367Z,5.60
2024-04-11T12:58:42.372Z,7.10
2024-04-11T13:02:08.485Z,5.30
2024-04-11T13:05:42.049Z,5.30
2024-04-11T13:09:12.346Z,4.20
2024-04-11T13:12:44.886Z,7.50
2024-04-11T13:16:11.934Z,3.40
2024-04-11T13:19:36.277Z,4.70
2024-04-11T13:23:11.057Z,8.50
2024-04-11T13:26:40.465Z,4.70
2024-04-11T13:30:13.035Z,4.70
2024-04-11T13:33:39.155Z,7.40
2024-04-11T13:37:06.566Z,8.10
2024-04-11T13:41:04.814Z,3.40
2024-04-11T13:45:02.919Z,5.80
2024-04-11T13:49:01.770Z,6.30
2024-04-11T13:52:59.768Z,5.60
2024-04-11T13:57:07.834Z,3.60
2024-04-11T14:01:09.783Z,7.70
2024-04-11T14:05:17.432Z,5.70
2024-04-11T14:09:17.800Z,8.50
2024-04-11T14:13:14.774Z,5.00
2024-04-11T14:17:22.627Z,9.40
2024-04-11T14:21:29.794Z,5.00
2024-04-11T14:25:46.856Z,6.20
2024-04-11T14:29:44.760Z,7.40
2024-04-11T14:34:14.421Z,5.40
2024-04-11T14:38:14.709Z,7.40
2024-04-11T14:42:13.745Z,8.80
2024-04-11T14:46:11.752Z,7.60
2024-04-11T14:50:10.718Z,4.40
2024-04-11T14:54:12.864Z,7.80
2024-04-11T14:58:09.774Z,4.00
2024-04-11T15:02:07.749Z,4.70
2024-04-11T15:06:05.725Z,5.50
2024-04-11T15:10:05.678Z,5.80
2024-04-11T15:14:07.742Z,6.30
2024-04-11T15:18:06.771Z,7.90
2024-04-11T15:22:04.694Z,5.60
2024-04-11T15:26:03.691Z,7.50
2024-04-11T15:30:11.792Z,7.30
2024-04-11T15:34:15.676Z,8.00
2024-04-11T15:38:28.742Z,6.00
2024-04-11T15:42:28.719Z,8.50
2024-04-11T15:46:27.674Z,5.10
2024-04-11T15:50:24.712Z,7.20
2024-04-11T15:54:24.829Z,7.50
2024-04-11T15:58:22.772Z,7.40
2024-04-11T16:02:25.730Z,9.40
2024-04-11T16:06:33.670Z,6.80
2024-04-11T16:10:31.638Z,7.60
2024-04-11T16:14:30.631Z,7.00
2024-04-11T16:18:34.339Z,9.10
2024-04-11T16:22:33.697Z,5.80
2024-04-11T16:26:33.630Z,9.70
2024-04-11T16:30:37.610Z,7.70
2024-04-11T16:34:37.798Z,9.80
2024-04-11T16:38:54.772Z,9.40
2024-04-11T16:42:52.597Z,15.70
2024-04-11T16:46:58.585Z,7.60
2024-04-11T16:50:57.638Z,9.50
2024-04-11T16:54:58.610Z,14.70
2024-04-11T16:59:00.610Z,9.90
2024-04-11T17:02:58.909Z,10.30
2024-04-11T17:06:57.763Z,12.10
2024-04-11T17:10:55.584Z,6.90
2024-04-11T17:15:00.791Z,10.70
2024-04-11T17:19:00.814Z,14.90
2024-04-11T17:23:00.558Z,18.80
2024-04-11T17:27:00.555Z,12.20
2024-04-11T17:31:10.584Z,10.00
2024-04-11T17:35:25.524Z,11.90
2024-04-11T17:39:51.651Z,12.80
2024-04-11T17:43:51.559Z,14.00
2024-04-11T17:47:51.557Z,21.10
2024-04-11T17:51:51.549Z,17.80
2024-04-11T17:55:50.552Z,16.60
2024-04-11T17:59:47.525Z,21.20
2024-04-11T18:03:47.540Z,20.20
2024-04-11T18:07:45.518Z,25.00
2024-04-11T18:11:54.661Z,16.20
2024-04-11T18:15:57.566Z,16.80
2024-04-11T18:19:55.546Z,16.00
2024-04-11T18:23:58.566Z,18.40
2024-04-11T18:27:58.697Z,23.00
2024-04-11T18:31:55.633Z,27.30
2024-04-11T18:35:54.582Z,20.30
2024-04-11T18:40:08.474Z,21.70
2024-04-11T18:44:15.684Z,22.60
2024-04-11T18:48:19.666Z,23.20
2024-04-11T18:52:20.481Z,30.00
2024-04-11T18:56:36.528Z,26.20
2024-04-11T19:00:37.486Z,22.50
2024-04-11T19:04:49.439Z,30.90
2024-04-11T19:08:48.519Z,26.20
2024-04-11T19:12:48.474Z,29.50
2024-04-11T19:16:45.617Z,26.30
2024-04-11T19:20:43.474Z,24.60
2024-04-11T19:24:41.520Z,36.20
2024-04-11T19:28:43.446Z,35.90
2024-04-11T19:32:47.566Z,38.00
2024-04-11T19:36:45.431Z,30.60
2024-04-11T19:40:42.466Z,41.10
2024-04-11T19:44:41.285Z,36.70
2024-04-11T19:48:39.923Z,43.20
2024-04-11T19:52:40.446Z,42.00
2024-04-11T19:56:41.550Z,43.80
2024-04-11T20:00:51.455Z,43.50
2024-04-11T20:04:49.443Z,57.20
2024-04-11T20:08:46.544Z,55.90
2024-04-11T20:12:49.415Z,54.40
2024-04-11T20:16:47.383Z,43.20
2024-04-11T20:20:47.504Z,34.40
2024-04-11T20:24:46.364Z,39.00
2024-04-11T20:28:45.405Z,44.60
2024-04-11T20:32:43.486Z,39.20
2024-04-11T20:36:44.359Z,56.50
2024-04-11T20:40:51.361Z,54.90
2024-04-11T20:45:01.428Z,60.60
2024-04-11T20:49:12.433Z,57.30
2024-04-11T20:53:27.346Z,56.30
2024-04-11T20:57:41.317Z,61.80
2024-04-11T21:01:56.479Z,62.10
2024-04-11T21:06:14.344Z,65.10
2024-04-11T21:10:29.325Z,75.20
2024-04-11T21:14:44.367Z,81.60
2024-04-11T21:19:00.838Z,85.40
2024-04-11T21:23:16.332Z,96.40
2024-04-11T21:27:31.409Z,101.30
2024-04-11T21:31:46.315Z,88.10
2024-04-11T21:35:43.379Z,89.40
2024-04-11T21:39:42.338Z,88.30
2024-04-11T21:43:40.303Z,85.20
2024-04-11T21:47:37.399Z,79.30
2024-04-11T21:51:38.314Z,86.30
2024-04-11T21:55:35.256Z,86.00
2024-04-11T21:59:33.390Z,86.40
2024-04-11T22:06:04.986Z,91.10
2024-04-11T22:10:08.875Z,88.80
2024-04-11T22:14:06.835Z,89.70
2024-04-11T22:18:04.874Z,83.20
2024-04-11T22:22:02.835Z,87.40
2024-04-11T22:26:00.836Z,87.10
2024-04-11T22:30:00.891Z,87.60
2024-04-11T22:33:58.817Z,80.80
2024-04-11T22:38:02.773Z,87.90
2024-04-11T22:42:03.864Z,81.00
2024-04-11T22:46:00.794Z,86.20
2024-04-11T22:50:11.830Z,80.70
2024-04-11T22:54:12.871Z,87.00
2024-04-11T22:58:12.787Z,85.30
2024-04-11T23:02:17.859Z,71.50
2024-04-11T23:06:15.797Z,83.10
2024-04-11T23:10:17.853Z,79.60
2024-04-11T23:14:17.755Z,77.10
2024-04-11T23:18:14.785Z,84.80
2024-04-11T23:22:14.741Z,83.80
2024-04-11T23:26:12.762Z,72.70
2024-04-11T23:30:13.781Z,72.00
2024-04-11T23:34:10.716Z,73.50
2024-04-11T23:38:12.698Z,65.10
2024-04-11T23:42:10.753Z,67.90
2024-04-11T23:46:13.732Z,68.00
2024-04-11T23:50:16.762Z,71.40
2024-04-11T23:54:13.727Z,69.70
2024-04-11T23:58:22.679Z,77.30
